sensor_id;sensor_type;location;lat;lon;timestamp;temperature;humidity
11963;DHT22;62678;52.130;5.584;2023-04-25T00:02:10;6.60;99.90
11963;DHT22;62678;52.130;5.584;2023-04-25T00:04:37;6.60;99.90
11963;DHT22;62678;52.130;5.584;2023-04-25T00:07:04;6.50;99.90
11963;DHT22;62678;52.130;5.584;2023-04-25T00:09:32;6.50;99.90
11963;DHT22;62678;52.130;5.584;2023-04-25T00:11:59;6.50;99.90
11963;DHT22;62678;52.130;5.584;2023-04-25T00:14:26;6.50;99.90
11963;DHT22;62678;52.130;5.584;2023-04-25T00:16:54;6.50;99.90
11963;DHT22;62678;52.130;5.584;2023-04-25T00:19:21;6.50;99.90
11963;DHT22;62678;52.130;5.584;2023-04-25T00:21:48;6.50;99.90
11963;DHT22;62678;52.130;5.584;2023-04-25T00:24:15;6.40;99.90
11963;DHT22;62678;52.130;5.584;2023-04-25T00:26:43;6.40;99.90
11963;DHT22;62678;52.130;5.584;2023-04-25T00:29:10;6.20;99.90
11963;DHT22;62678;52.130;5.584;2023-04-25T00:31:37;6.10;99.90
11963;DHT22;62678;52.130;5.584;2023-04-25T00:34:03;6.10;99.90
11963;DHT22;62678;52.130;5.584;2023-04-25T00:36:30;6.00;99.90
11963;DHT22;62678;52.130;5.584;2023-04-25T00:38:57;6.00;99.90
11963;DHT22;62678;52.130;5.584;2023-04-25T00:41:25;6.00;99.90
11963;DHT22;62678;52.130;5.584;2023-04-25T00:43:54;6.10;99.90
11963;DHT22;62678;52.130;5.584;2023-04-25T00:46:21;6.00;99.90
11963;DHT22;62678;52.130;5.584;2023-04-25T00:48:48;6.00;99.90
11963;DHT22;62678;52.130;5.584;2023-04-25T00:51:17;6.10;99.90
11963;DHT22;62678;52.130;5.584;2023-04-25T00:53:45;6.00;99.90
11963;DHT22;62678;52.130;5.584;2023-04-25T00:56:13;6.00;99.90
11963;DHT22;62678;52.130;5.584;2023-04-25T00:58:41;6.00;99.90
11963;DHT22;62678;52.130;5.584;2023-04-25T01:01:10;6.00;99.90
11963;DHT22;62678;52.130;5.584;2023-04-25T01:03:39;6.00;99.90
11963;DHT22;62678;52.130;5.584;2023-04-25T01:06:07;6.10;99.90
11963;DHT22;62678;52.130;5.584;2023-04-25T01:08:36;6.10;99.90
11963;DHT22;62678;52.130;5.584;2023-04-25T01:11:06;6.10;99.90
11963;DHT22;62678;52.130;5.584;2023-04-25T01:13:37;6.10;99.90
11963;DHT22;62678;52.130;5.584;2023-04-25T01:16:04;6.10;99.90
11963;DHT22;62678;52.130;5.584;2023-04-25T01:18:32;6.10;99.90
11963;DHT22;62678;52.130;5.584;2023-04-25T01:21:07;6.10;99.90
11963;DHT22;62678;52.130;5.584;2023-04-25T01:23:34;6.10;99.90
11963;DHT22;62678;52.130;5.584;2023-04-25T01:26:01;6.10;99.90
11963;DHT22;62678;52.130;5.584;2023-04-25T01:28:28;6.20;99.90
11963;DHT22;62678;52.130;5.584;2023-04-25T01:30:56;6.10;99.90
11963;DHT22;62678;52.130;5.584;2023-04-25T01:33:23;6.10;99.90
11963;DHT22;62678;52.130;5.584;2023-04-25T01:35:50;6.10;99.90
11963;DHT22;62678;52.130;5.584;2023-04-25T01:38:18;6.10;99.90
11963;DHT22;62678;52.130;5.584;2023-04-25T01:40:45;6.10;99.90
11963;DHT22;62678;52.130;5.584;2023-04-25T01:43:13;6.10;99.90
11963;DHT22;62678;52.130;5.584;2023-04-25T01:45:40;6.10;99.90
11963;DHT22;62678;52.130;5.584;2023-04-25T01:48:07;6.00;99.90
11963;DHT22;62678;52.130;5.584;2023-04-25T01:50:34;6.00;99.90
11963;DHT22;62678;52.130;5.584;2023-04-25T01:53:01;5.90;99.90
11963;DHT22;62678;52.130;5.584;2023-04-25T01:55:29;5.80;99.90
11963;DHT22;62678;52.130;5.584;2023-04-25T01:57:56;5.80;99.90
11963;DHT22;62678;52.130;5.584;2023-04-25T02:00:24;5.80;99.90
11963;DHT22;62678;52.130;5.584;2023-04-25T02:02:51;5.70;99.90
11963;DHT22;62678;52.130;5.584;2023-04-25T02:05:19;5.70;99.90
11963;DHT22;62678;52.130;5.584;2023-04-25T02:07:46;5.70;99.90
11963;DHT22;62678;52.130;5.584;2023-04-25T02:10:13;5.60;99.90
11963;DHT22;62678;52.130;5.584;2023-04-25T02:12:42;5.60;99.90
11963;DHT22;62678;52.130;5.584;2023-04-25T02:15:09;5.50;99.90
11963;DHT22;62678;52.130;5.584;2023-04-25T02:17:36;5.40;99.90
11963;DHT22;62678;52.130;5.584;2023-04-25T02:20:04;5.30;99.90
11963;DHT22;62678;52.130;5.584;2023-04-25T02:22:31;5.20;99.90
11963;DHT22;62678;52.130;5.584;2023-04-25T02:24:59;5.20;99.90
11963;DHT22;62678;52.130;5.584;2023-04-25T02:27:26;5.20;99.90
11963;DHT22;62678;52.130;5.584;2023-04-25T02:29:54;5.20;99.90
11963;DHT22;62678;52.130;5.584;2023-04-25T02:32:21;5.10;99.90
11963;DHT22;62678;52.130;5.584;2023-04-25T02:34:47;5.10;99.90
11963;DHT22;62678;52.130;5.584;2023-04-25T02:37:14;5.10;99.90
11963;DHT22;62678;52.130;5.584;2023-04-25T02:39:41;5.00;99.90
11963;DHT22;62678;52.130;5.584;2023-04-25T02:42:08;5.00;99.90
11963;DHT22;62678;52.130;5.584;2023-04-25T02:44:35;5.00;99.90
11963;DHT22;62678;52.130;5.584;2023-04-25T02:47:03;4.90;99.90
11963;DHT22;62678;52.130;5.584;2023-04-25T02:49:30;4.90;99.90
11963;DHT22;62678;52.130;5.584;2023-04-25T02:51:56;4.90;99.90
11963;DHT22;62678;52.130;5.584;2023-04-25T02:54:23;4.90;99.90
11963;DHT22;62678;52.130;5.584;2023-04-25T02:56:50;4.90;99.90
11963;DHT22;62678;52.130;5.584;2023-04-25T02:59:17;4.90;99.90
11963;DHT22;62678;52.130;5.584;2023-04-25T03:01:44;4.90;99.90
11963;DHT22;62678;52.130;5.584;2023-04-25T03:04:12;4.90;99.90
11963;DHT22;62678;52.130;5.584;2023-04-25T03:06:39;5.00;99.90
11963;DHT22;62678;52.130;5.584;2023-04-25T03:09:06;5.00;99.90
11963;DHT22;62678;52.130;5.584;2023-04-25T03:11:33;5.00;99.90
11963;DHT22;62678;52.130;5.584;2023-04-25T03:13:59;5.00;99.90
11963;DHT22;62678;52.130;5.584;2023-04-25T03:16:26;5.00;99.90
11963;DHT22;62678;52.130;5.584;2023-04-25T03:18:53;4.90;99.90
11963;DHT22;62678;52.130;5.584;2023-04-25T03:21:21;4.90;99.90
11963;DHT22;62678;52.130;5.584;2023-04-25T03:23:48;4.90;99.90
11963;DHT22;62678;52.130;5.584;2023-04-25T03:26:15;4.80;99.90
11963;DHT22;62678;52.130;5.584;2023-04-25T03:28:42;4.80;99.90
11963;DHT22;62678;52.130;5.584;2023-04-25T03:31:09;4.80;99.90
11963;DHT22;62678;52.130;5.584;2023-04-25T03:33:37;4.80;99.90
11963;DHT22;62678;52.130;5.584;2023-04-25T03:36:04;4.80;99.90
11963;DHT22;62678;52.130;5.584;2023-04-25T03:38:33;4.80;99.90
11963;DHT22;62678;52.130;5.584;2023-04-25T03:41:00;4.80;99.90
11963;DHT22;62678;52.130;5.584;2023-04-25T03:43:27;4.80;99.90
11963;DHT22;62678;52.130;5.584;2023-04-25T03:45:54;4.80;99.90
11963;DHT22;62678;52.130;5.584;2023-04-25T03:48:21;5.00;99.90
11963;DHT22;62678;52.130;5.584;2023-04-25T03:50:50;5.00;99.90
11963;DHT22;62678;52.130;5.584;2023-04-25T03:53:17;5.00;99.90
11963;DHT22;62678;52.130;5.584;2023-04-25T03:55:45;5.00;99.90
11963;DHT22;62678;52.130;5.584;2023-04-25T03:58:11;5.00;99.90
11963;DHT22;62678;52.130;5.584;2023-04-25T04:00:38;5.00;99.90
11963;DHT22;62678;52.130;5.584;2023-04-25T04:03:05;5.10;99.90
11963;DHT22;62678;52.130;5.584;2023-04-25T04:05:32;5.10;99.90
11963;DHT22;62678;52.130;5.584;2023-04-25T04:07:59;5.20;99.90
11963;DHT22;62678;52.130;5.584;2023-04-25T04:10:25;5.20;99.90
11963;DHT22;62678;52.130;5.584;2023-04-25T04:12:54;5.30;99.90
11963;DHT22;62678;52.130;5.584;2023-04-25T04:15:21;5.30;99.90
11963;DHT22;62678;52.130;5.584;2023-04-25T04:17:48;5.20;99.90
11963;DHT22;62678;52.130;5.584;2023-04-25T04:20:15;5.30;99.90
11963;DHT22;62678;52.130;5.584;2023-04-25T04:22:42;5.30;99.90
11963;DHT22;62678;52.130;5.584;2023-04-25T04:25:09;5.30;99.90
11963;DHT22;62678;52.130;5.584;2023-04-25T04:27:37;5.30;99.90
11963;DHT22;62678;52.130;5.584;2023-04-25T04:30:07;5.30;99.90
11963;DHT22;62678;52.130;5.584;2023-04-25T04:32:34;5.30;99.90
11963;DHT22;62678;52.130;5.584;2023-04-25T04:35:03;5.30;99.90
11963;DHT22;62678;52.130;5.584;2023-04-25T04:37:32;5.40;99.90
11963;DHT22;62678;52.130;5.584;2023-04-25T04:39:59;5.60;99.90
11963;DHT22;62678;52.130;5.584;2023-04-25T04:42:26;5.60;99.90
11963;DHT22;62678;52.130;5.584;2023-04-25T04:44:53;5.60;99.90
11963;DHT22;62678;52.130;5.584;2023-04-25T04:47:22;5.60;99.90
11963;DHT22;62678;52.130;5.584;2023-04-25T04:49:56;5.60;99.90
11963;DHT22;62678;52.130;5.584;2023-04-25T04:52:23;5.70;99.90
11963;DHT22;62678;52.130;5.584;2023-04-25T04:54:49;5.70;99.90
11963;DHT22;62678;52.130;5.584;2023-04-25T04:57:16;5.80;99.90
11963;DHT22;62678;52.130;5.584;2023-04-25T04:59:43;5.90;99.90
11963;DHT22;62678;52.130;5.584;2023-04-25T05:02:10;5.90;99.90
11963;DHT22;62678;52.130;5.584;2023-04-25T05:04:38;5.90;99.90
11963;DHT22;62678;52.130;5.584;2023-04-25T05:07:05;5.90;99.90
11963;DHT22;62678;52.130;5.584;2023-04-25T05:09:32;5.90;99.90
11963;DHT22;62678;52.130;5.584;2023-04-25T05:11:59;5.90;99.90
11963;DHT22;62678;52.130;5.584;2023-04-25T05:14:26;6.10;99.90
11963;DHT22;62678;52.130;5.584;2023-04-25T05:16:53;6.10;99.90
11963;DHT22;62678;52.130;5.584;2023-04-25T05:19:20;6.10;99.90
11963;DHT22;62678;52.130;5.584;2023-04-25T05:21:48;6.20;99.90
11963;DHT22;62678;52.130;5.584;2023-04-25T05:24:15;6.20;99.90
11963;DHT22;62678;52.130;5.584;2023-04-25T05:26:41;6.20;99.90
11963;DHT22;62678;52.130;5.584;2023-04-25T05:29:08;6.30;99.90
11963;DHT22;62678;52.130;5.584;2023-04-25T05:31:36;6.40;99.90
11963;DHT22;62678;52.130;5.584;2023-04-25T05:34:03;6.40;99.90
11963;DHT22;62678;52.130;5.584;2023-04-25T05:36:29;6.40;99.90
11963;DHT22;62678;52.130;5.584;2023-04-25T05:38:59;6.40;99.90
11963;DHT22;62678;52.130;5.584;2023-04-25T05:41:26;6.40;99.90
11963;DHT22;62678;52.130;5.584;2023-04-25T05:43:52;6.30;99.90
11963;DHT22;62678;52.130;5.584;2023-04-25T05:46:19;6.40;99.90
11963;DHT22;62678;52.130;5.584;2023-04-25T05:48:46;6.50;99.90
11963;DHT22;62678;52.130;5.584;2023-04-25T05:51:13;6.50;99.90
11963;DHT22;62678;52.130;5.584;2023-04-25T05:53:39;6.70;99.90
11963;DHT22;62678;52.130;5.584;2023-04-25T05:56:08;6.70;99.90
11963;DHT22;62678;52.130;5.584;2023-04-25T05:58:34;6.80;99.90
11963;DHT22;62678;52.130;5.584;2023-04-25T06:01:01;6.90;99.90
11963;DHT22;62678;52.130;5.584;2023-04-25T06:03:29;6.90;99.90
11963;DHT22;62678;52.130;5.584;2023-04-25T06:05:55;6.90;99.90
11963;DHT22;62678;52.130;5.584;2023-04-25T06:08:22;7.00;99.90
11963;DHT22;62678;52.130;5.584;2023-04-25T06:10:49;6.90;99.90
11963;DHT22;62678;52.130;5.584;2023-04-25T06:13:17;7.00;99.90
11963;DHT22;62678;52.130;5.584;2023-04-25T06:15:44;6.90;99.90
11963;DHT22;62678;52.130;5.584;2023-04-25T06:18:11;7.00;99.90
11963;DHT22;62678;52.130;5.584;2023-04-25T06:20:38;7.00;99.90
11963;DHT22;62678;52.130;5.584;2023-04-25T06:23:05;7.00;99.90
11963;DHT22;62678;52.130;5.584;2023-04-25T06:25:34;7.00;99.90
11963;DHT22;62678;52.130;5.584;2023-04-25T06:28:01;7.00;99.90
11963;DHT22;62678;52.130;5.584;2023-04-25T06:30:30;7.00;99.90
11963;DHT22;62678;52.130;5.584;2023-04-25T06:32:58;6.90;99.90
11963;DHT22;62678;52.130;5.584;2023-04-25T06:35:25;6.90;99.90
11963;DHT22;62678;52.130;5.584;2023-04-25T06:37:52;7.10;99.90
11963;DHT22;62678;52.130;5.584;2023-04-25T06:40:19;7.10;99.90
11963;DHT22;62678;52.130;5.584;2023-04-25T06:42:46;7.40;99.90
11963;DHT22;62678;52.130;5.584;2023-04-25T06:45:13;7.70;99.90
11963;DHT22;62678;52.130;5.584;2023-04-25T06:47:41;7.90;99.90
11963;DHT22;62678;52.130;5.584;2023-04-25T06:50:09;8.00;99.90
11963;DHT22;62678;52.130;5.584;2023-04-25T06:52:36;8.20;99.90
11963;DHT22;62678;52.130;5.584;2023-04-25T06:55:03;8.10;99.90
11963;DHT22;62678;52.130;5.584;2023-04-25T06:57:31;8.30;99.90
11963;DHT22;62678;52.130;5.584;2023-04-25T06:59:57;8.30;99.90
11963;DHT22;62678;52.130;5.584;2023-04-25T07:02:24;8.20;99.90
11963;DHT22;62678;52.130;5.584;2023-04-25T07:04:53;8.20;99.90
11963;DHT22;62678;52.130;5.584;2023-04-25T07:07:21;8.20;99.90
11963;DHT22;62678;52.130;5.584;2023-04-25T07:09:48;8.30;99.90
11963;DHT22;62678;52.130;5.584;2023-04-25T07:12:15;8.40;99.90
11963;DHT22;62678;52.130;5.584;2023-04-25T07:14:42;8.40;99.90
11963;DHT22;62678;52.130;5.584;2023-04-25T07:17:09;8.40;99.90
11963;DHT22;62678;52.130;5.584;2023-04-25T07:19:36;8.30;99.90
11963;DHT22;62678;52.130;5.584;2023-04-25T07:22:06;8.30;99.90
11963;DHT22;62678;52.130;5.584;2023-04-25T07:24:32;8.20;99.90
11963;DHT22;62678;52.130;5.584;2023-04-25T07:26:59;8.30;99.90
11963;DHT22;62678;52.130;5.584;2023-04-25T07:29:26;8.20;99.90
11963;DHT22;62678;52.130;5.584;2023-04-25T07:31:53;8.20;99.90
11963;DHT22;62678;52.130;5.584;2023-04-25T07:34:20;8.40;99.90
11963;DHT22;62678;52.130;5.584;2023-04-25T07:36:47;8.50;99.90
11963;DHT22;62678;52.130;5.584;2023-04-25T07:39:15;8.60;99.90
11963;DHT22;62678;52.130;5.584;2023-04-25T07:41:42;8.90;99.90
11963;DHT22;62678;52.130;5.584;2023-04-25T07:44:09;8.80;99.90
11963;DHT22;62678;52.130;5.584;2023-04-25T07:46:36;8.80;99.90
11963;DHT22;62678;52.130;5.584;2023-04-25T07:49:02;8.90;99.90
11963;DHT22;62678;52.130;5.584;2023-04-25T07:51:29;8.90;99.90
11963;DHT22;62678;52.130;5.584;2023-04-25T07:53:57;9.00;99.90
11963;DHT22;62678;52.130;5.584;2023-04-25T07:56:26;9.00;99.90
11963;DHT22;62678;52.130;5.584;2023-04-25T07:58:53;9.00;99.90
11963;DHT22;62678;52.130;5.584;2023-04-25T08:01:20;9.00;99.90
11963;DHT22;62678;52.130;5.584;2023-04-25T08:03:47;9.00;99.90
11963;DHT22;62678;52.130;5.584;2023-04-25T08:06:14;9.10;99.90
11963;DHT22;62678;52.130;5.584;2023-04-25T08:08:41;9.10;99.90
11963;DHT22;62678;52.130;5.584;2023-04-25T08:11:08;9.00;99.90
11963;DHT22;62678;52.130;5.584;2023-04-25T08:13:36;8.80;99.90
11963;DHT22;62678;52.130;5.584;2023-04-25T08:16:03;8.60;99.90
11963;DHT22;62678;52.130;5.584;2023-04-25T08:18:30;8.70;99.90
11963;DHT22;62678;52.130;5.584;2023-04-25T08:20:57;8.80;99.90
11963;DHT22;62678;52.130;5.584;2023-04-25T08:23:24;8.90;99.90
11963;DHT22;62678;52.130;5.584;2023-04-25T08:25:51;8.80;99.90
11963;DHT22;62678;52.130;5.584;2023-04-25T08:28:18;8.60;99.90
11963;DHT22;62678;52.130;5.584;2023-04-25T08:30:46;7.90;99.90
11963;DHT22;62678;52.130;5.584;2023-04-25T08:33:12;7.50;99.90
11963;DHT22;62678;52.130;5.584;2023-04-25T08:35:40;7.30;99.90
11963;DHT22;62678;52.130;5.584;2023-04-25T08:38:06;7.40;99.90
11963;DHT22;62678;52.130;5.584;2023-04-25T08:40:37;7.60;99.90
11963;DHT22;62678;52.130;5.584;2023-04-25T08:43:06;7.90;99.90
11963;DHT22;62678;52.130;5.584;2023-04-25T08:45:39;8.00;99.90
11963;DHT22;62678;52.130;5.584;2023-04-25T08:48:11;8.10;99.90
11963;DHT22;62678;52.130;5.584;2023-04-25T08:50:39;8.10;99.90
11963;DHT22;62678;52.130;5.584;2023-04-25T08:53:09;8.10;99.90
11963;DHT22;62678;52.130;5.584;2023-04-25T08:55:41;8.20;99.90
11963;DHT22;62678;52.130;5.584;2023-04-25T08:58:09;8.20;99.90
11963;DHT22;62678;52.130;5.584;2023-04-25T09:00:37;8.20;99.90
11963;DHT22;62678;52.130;5.584;2023-04-25T09:03:04;8.20;99.90
11963;DHT22;62678;52.130;5.584;2023-04-25T09:05:33;8.10;99.90
11963;DHT22;62678;52.130;5.584;2023-04-25T09:08:01;8.10;99.90
11963;DHT22;62678;52.130;5.584;2023-04-25T09:10:27;8.10;99.90
11963;DHT22;62678;52.130;5.584;2023-04-25T09:13:04;8.10;99.90
11963;DHT22;62678;52.130;5.584;2023-04-25T09:15:32;8.40;99.90
11963;DHT22;62678;52.130;5.584;2023-04-25T09:17:59;8.70;99.90
11963;DHT22;62678;52.130;5.584;2023-04-25T09:20:26;8.90;99.90
11963;DHT22;62678;52.130;5.584;2023-04-25T09:23:05;9.20;99.90
11963;DHT22;62678;52.130;5.584;2023-04-25T09:25:35;9.20;99.90
11963;DHT22;62678;52.130;5.584;2023-04-25T09:28:05;9.10;99.90
11963;DHT22;62678;52.130;5.584;2023-04-25T09:30:33;9.10;99.90
11963;DHT22;62678;52.130;5.584;2023-04-25T09:33:05;9.30;99.90
11963;DHT22;62678;52.130;5.584;2023-04-25T09:35:35;9.10;99.90
11963;DHT22;62678;52.130;5.584;2023-04-25T09:38:09;9.20;99.90
11963;DHT22;62678;52.130;5.584;2023-04-25T09:40:39;9.50;99.90
11963;DHT22;62678;52.130;5.584;2023-04-25T09:43:09;9.90;99.90
11963;DHT22;62678;52.130;5.584;2023-04-25T09:45:41;10.30;99.90
11963;DHT22;62678;52.130;5.584;2023-04-25T09:48:11;10.20;99.90
11963;DHT22;62678;52.130;5.584;2023-04-25T09:50:38;10.00;99.90
11963;DHT22;62678;52.130;5.584;2023-04-25T09:53:06;9.90;99.90
11963;DHT22;62678;52.130;5.584;2023-04-25T09:55:34;9.40;99.90
11963;DHT22;62678;52.130;5.584;2023-04-25T09:58:04;8.80;99.90
11963;DHT22;62678;52.130;5.584;2023-04-25T10:00:32;8.50;99.90
11963;DHT22;62678;52.130;5.584;2023-04-25T10:03:01;8.30;99.90
11963;DHT22;62678;52.130;5.584;2023-04-25T10:05:30;8.30;99.90
11963;DHT22;62678;52.130;5.584;2023-04-25T10:07:59;8.50;99.90
11963;DHT22;62678;52.130;5.584;2023-04-25T10:10:28;8.70;99.90
11963;DHT22;62678;52.130;5.584;2023-04-25T10:13:06;8.70;99.90
11963;DHT22;62678;52.130;5.584;2023-04-25T10:15:35;9.00;99.90
11963;DHT22;62678;52.130;5.584;2023-04-25T10:18:02;9.40;99.90
11963;DHT22;62678;52.130;5.584;2023-04-25T10:20:32;9.50;99.90
11963;DHT22;62678;52.130;5.584;2023-04-25T10:23:10;9.50;99.90
11963;DHT22;62678;52.130;5.584;2023-04-25T10:25:39;9.30;99.90
11963;DHT22;62678;52.130;5.584;2023-04-25T10:28:07;9.30;99.90
11963;DHT22;62678;52.130;5.584;2023-04-25T10:30:34;9.30;99.90
11963;DHT22;62678;52.130;5.584;2023-04-25T10:33:01;9.30;99.90
11963;DHT22;62678;52.130;5.584;2023-04-25T10:35:29;9.30;99.90
11963;DHT22;62678;52.130;5.584;2023-04-25T10:37:58;9.30;99.90
11963;DHT22;62678;52.130;5.584;2023-04-25T10:40:25;9.50;99.90
11963;DHT22;62678;52.130;5.584;2023-04-25T10:42:52;9.40;99.90
11963;DHT22;62678;52.130;5.584;2023-04-25T10:45:21;9.60;99.90
11963;DHT22;62678;52.130;5.584;2023-04-25T10:47:48;9.60;99.90
11963;DHT22;62678;52.130;5.584;2023-04-25T10:50:15;9.60;99.90
11963;DHT22;62678;52.130;5.584;2023-04-25T10:52:42;9.70;99.90
11963;DHT22;62678;52.130;5.584;2023-04-25T10:55:09;9.80;99.90
11963;DHT22;62678;52.130;5.584;2023-04-25T10:57:38;9.70;99.90
11963;DHT22;62678;52.130;5.584;2023-04-25T11:00:08;9.70;99.90
11963;DHT22;62678;52.130;5.584;2023-04-25T11:02:46;9.80;99.90
11963;DHT22;62678;52.130;5.584;2023-04-25T11:05:23;9.80;99.90
11963;DHT22;62678;52.130;5.584;2023-04-25T11:07:51;9.90;99.90
11963;DHT22;62678;52.130;5.584;2023-04-25T11:10:20;10.10;99.90
11963;DHT22;62678;52.130;5.584;2023-04-25T11:12:46;10.30;99.90
11963;DHT22;62678;52.130;5.584;2023-04-25T11:15:13;10.30;99.90
11963;DHT22;62678;52.130;5.584;2023-04-25T11:17:40;10.70;99.90
11963;DHT22;62678;52.130;5.584;2023-04-25T11:20:10;10.80;99.90
11963;DHT22;62678;52.130;5.584;2023-04-25T11:22:40;10.70;99.90
11963;DHT22;62678;52.130;5.584;2023-04-25T11:25:09;11.00;99.90
11963;DHT22;62678;52.130;5.584;2023-04-25T11:27:38;11.10;99.90
11963;DHT22;62678;52.130;5.584;2023-04-25T11:30:13;10.80;99.90
11963;DHT22;62678;52.130;5.584;2023-04-25T11:32:40;10.10;99.90
11963;DHT22;62678;52.130;5.584;2023-04-25T11:35:10;9.30;99.90
11963;DHT22;62678;52.130;5.584;2023-04-25T11:37:38;8.70;99.90
11963;DHT22;62678;52.130;5.584;2023-04-25T11:40:06;8.30;99.90
11963;DHT22;62678;52.130;5.584;2023-04-25T11:42:36;8.50;99.90
11963;DHT22;62678;52.130;5.584;2023-04-25T11:45:04;8.40;99.90
11963;DHT22;62678;52.130;5.584;2023-04-25T11:47:32;8.50;99.90
11963;DHT22;62678;52.130;5.584;2023-04-25T11:50:00;8.60;99.90
11963;DHT22;62678;52.130;5.584;2023-04-25T11:52:37;8.60;99.90
11963;DHT22;62678;52.130;5.584;2023-04-25T11:55:08;8.90;99.90
11963;DHT22;62678;52.130;5.584;2023-04-25T11:57:36;9.10;99.90
11963;DHT22;62678;52.130;5.584;2023-04-25T12:00:09;9.30;99.90
11963;DHT22;62678;52.130;5.584;2023-04-25T12:02:40;9.40;99.90
11963;DHT22;62678;52.130;5.584;2023-04-25T12:05:07;9.50;99.90
11963;DHT22;62678;52.130;5.584;2023-04-25T12:07:35;9.80;99.90
11963;DHT22;62678;52.130;5.584;2023-04-25T12:10:06;10.00;99.90
11963;DHT22;62678;52.130;5.584;2023-04-25T12:12:33;10.30;99.90
11963;DHT22;62678;52.130;5.584;2023-04-25T12:15:09;10.60;99.90
11963;DHT22;62678;52.130;5.584;2023-04-25T12:17:36;10.50;99.90
11963;DHT22;62678;52.130;5.584;2023-04-25T12:20:07;10.10;99.90
11963;DHT22;62678;52.130;5.584;2023-04-25T12:22:34;10.00;99.90
11963;DHT22;62678;52.130;5.584;2023-04-25T12:25:04;10.40;99.90
11963;DHT22;62678;52.130;5.584;2023-04-25T12:27:32;10.40;99.90
11963;DHT22;62678;52.130;5.584;2023-04-25T12:30:01;10.80;99.90
11963;DHT22;62678;52.130;5.584;2023-04-25T12:32:29;10.90;99.90
11963;DHT22;62678;52.130;5.584;2023-04-25T12:34:56;10.50;99.90
11963;DHT22;62678;52.130;5.584;2023-04-25T12:37:23;10.40;99.90
11963;DHT22;62678;52.130;5.584;2023-04-25T12:39:50;10.40;99.90
11963;DHT22;62678;52.130;5.584;2023-04-25T12:42:18;10.20;99.90
11963;DHT22;62678;52.130;5.584;2023-04-25T12:44:45;10.50;99.90
11963;DHT22;62678;52.130;5.584;2023-04-25T12:47:12;10.80;99.90
11963;DHT22;62678;52.130;5.584;2023-04-25T12:49:39;10.60;99.90
11963;DHT22;62678;52.130;5.584;2023-04-25T12:52:06;10.40;99.90
11963;DHT22;62678;52.130;5.584;2023-04-25T12:54:32;10.30;99.90
11963;DHT22;62678;52.130;5.584;2023-04-25T12:56:59;10.20;99.90
11963;DHT22;62678;52.130;5.584;2023-04-25T12:59:29;10.20;99.90
11963;DHT22;62678;52.130;5.584;2023-04-25T13:01:56;10.60;99.90
11963;DHT22;62678;52.130;5.584;2023-04-25T13:04:23;11.00;99.90
11963;DHT22;62678;52.130;5.584;2023-04-25T13:06:49;11.40;99.90
11963;DHT22;62678;52.130;5.584;2023-04-25T13:09:16;11.30;99.90
11963;DHT22;62678;52.130;5.584;2023-04-25T13:11:43;11.40;99.90
11963;DHT22;62678;52.130;5.584;2023-04-25T13:14:12;11.10;99.90
11963;DHT22;62678;52.130;5.584;2023-04-25T13:16:40;10.80;99.90
11963;DHT22;62678;52.130;5.584;2023-04-25T13:19:07;10.80;99.90
11963;DHT22;62678;52.130;5.584;2023-04-25T13:21:37;10.90;99.90
11963;DHT22;62678;52.130;5.584;2023-04-25T13:24:04;11.20;99.90
11963;DHT22;62678;52.130;5.584;2023-04-25T13:26:31;11.20;99.90
11963;DHT22;62678;52.130;5.584;2023-04-25T13:28:58;11.40;99.90
11963;DHT22;62678;52.130;5.584;2023-04-25T13:31:26;11.30;99.90
11963;DHT22;62678;52.130;5.584;2023-04-25T13:33:54;11.00;99.90
11963;DHT22;62678;52.130;5.584;2023-04-25T13:36:21;10.30;99.90
11963;DHT22;62678;52.130;5.584;2023-04-25T13:38:47;10.10;99.90
11963;DHT22;62678;52.130;5.584;2023-04-25T13:41:15;9.90;99.90
11963;DHT22;62678;52.130;5.584;2023-04-25T13:43:44;9.70;99.90
11963;DHT22;62678;52.130;5.584;2023-04-25T13:46:12;9.60;99.90
11963;DHT22;62678;52.130;5.584;2023-04-25T13:48:41;9.50;99.90
11963;DHT22;62678;52.130;5.584;2023-04-25T13:51:14;9.50;99.90
11963;DHT22;62678;52.130;5.584;2023-04-25T13:53:43;9.50;99.90
11963;DHT22;62678;52.130;5.584;2023-04-25T13:56:10;9.80;99.90
11963;DHT22;62678;52.130;5.584;2023-04-25T13:58:38;10.00;99.90
11963;DHT22;62678;52.130;5.584;2023-04-25T14:01:05;10.30;99.90
11963;DHT22;62678;52.130;5.584;2023-04-25T14:03:34;10.70;99.90
11963;DHT22;62678;52.130;5.584;2023-04-25T14:06:01;10.70;99.90
11963;DHT22;62678;52.130;5.584;2023-04-25T14:08:29;10.80;99.90
11963;DHT22;62678;52.130;5.584;2023-04-25T14:10:56;10.30;99.90
11963;DHT22;62678;52.130;5.584;2023-04-25T14:13:23;10.10;99.90
11963;DHT22;62678;52.130;5.584;2023-04-25T14:15:50;10.20;99.90
11963;DHT22;62678;52.130;5.584;2023-04-25T14:18:17;10.00;99.90
11963;DHT22;62678;52.130;5.584;2023-04-25T14:20:44;10.00;99.90
11963;DHT22;62678;52.130;5.584;2023-04-25T14:23:11;9.90;99.90
11963;DHT22;62678;52.130;5.584;2023-04-25T14:25:39;9.90;99.90
11963;DHT22;62678;52.130;5.584;2023-04-25T14:28:07;10.00;99.90
11963;DHT22;62678;52.130;5.584;2023-04-25T14:30:34;10.10;99.90
11963;DHT22;62678;52.130;5.584;2023-04-25T14:33:01;10.50;99.90
11963;DHT22;62678;52.130;5.584;2023-04-25T14:35:27;10.50;99.90
11963;DHT22;62678;52.130;5.584;2023-04-25T14:37:54;10.90;99.90
11963;DHT22;62678;52.130;5.584;2023-04-25T14:40:22;11.10;99.90
11963;DHT22;62678;52.130;5.584;2023-04-25T14:42:50;10.80;99.90
11963;DHT22;62678;52.130;5.584;2023-04-25T14:45:18;10.60;99.90
11963;DHT22;62678;52.130;5.584;2023-04-25T14:47:45;10.70;99.90
11963;DHT22;62678;52.130;5.584;2023-04-25T14:50:12;10.90;99.90
11963;DHT22;62678;52.130;5.584;2023-04-25T14:52:38;10.60;99.90
11963;DHT22;62678;52.130;5.584;2023-04-25T14:55:06;11.00;99.90
11963;DHT22;62678;52.130;5.584;2023-04-25T14:57:33;11.80;99.90
11963;DHT22;62678;52.130;5.584;2023-04-25T15:00:02;12.40;99.90
11963;DHT22;62678;52.130;5.584;2023-04-25T15:02:30;12.70;99.90
11963;DHT22;62678;52.130;5.584;2023-04-25T15:04:57;12.60;99.90
11963;DHT22;62678;52.130;5.584;2023-04-25T15:07:24;12.90;99.90
11963;DHT22;62678;52.130;5.584;2023-04-25T15:09:51;12.30;99.90
11963;DHT22;62678;52.130;5.584;2023-04-25T15:12:21;11.70;99.90
11963;DHT22;62678;52.130;5.584;2023-04-25T15:14:48;11.40;99.90
11963;DHT22;62678;52.130;5.584;2023-04-25T15:17:16;11.00;99.90
11963;DHT22;62678;52.130;5.584;2023-04-25T15:19:43;10.80;99.90
11963;DHT22;62678;52.130;5.584;2023-04-25T15:22:10;10.90;99.90
11963;DHT22;62678;52.130;5.584;2023-04-25T15:24:37;11.10;99.90
11963;DHT22;62678;52.130;5.584;2023-04-25T15:27:04;12.20;99.90
11963;DHT22;62678;52.130;5.584;2023-04-25T15:29:31;12.60;99.90
11963;DHT22;62678;52.130;5.584;2023-04-25T15:31:58;12.50;99.90
11963;DHT22;62678;52.130;5.584;2023-04-25T15:34:26;12.40;99.90
11963;DHT22;62678;52.130;5.584;2023-04-25T15:36:53;12.00;99.90
11963;DHT22;62678;52.130;5.584;2023-04-25T15:39:20;11.30;99.90
11963;DHT22;62678;52.130;5.584;2023-04-25T15:41:47;10.40;99.90
11963;DHT22;62678;52.130;5.584;2023-04-25T15:44:14;10.00;99.90
11963;DHT22;62678;52.130;5.584;2023-04-25T15:46:41;9.90;99.90